createdAt,value
2022-12-18T00:02:02.291Z,99.90
2022-12-18T00:04:30.248Z,99.80
2022-12-18T00:06:58.576Z,99.80
2022-12-18T00:09:31.311Z,99.70
2022-12-18T00:14:43.812Z,99.50
2022-12-18T00:17:11.092Z,99.60
2022-12-18T00:19:38.374Z,99.60
2022-12-18T00:22:07.497Z,99.60
2022-12-18T00:24:34.937Z,99.50
2022-12-18T00:27:02.220Z,99.50
2022-12-18T00:29:30.125Z,99.40
2022-12-18T00:31:57.603Z,99.10
2022-12-18T00:34:25.592Z,99.00
2022-12-18T00:36:53.327Z,98.90
2022-12-18T00:39:22.225Z,98.70
2022-12-18T00:42:08.188Z,98.80
2022-12-18T00:44:35.752Z,99.10
2022-12-18T00:47:03.290Z,99.30
2022-12-18T00:49:31.154Z,98.90
2022-12-18T00:51:59.152Z,98.60
2022-12-18T00:54:26.758Z,98.70
2022-12-18T00:56:56.549Z,98.90
2022-12-18T00:59:24.405Z,99.00
2022-12-18T01:01:52.013Z,99.00
2022-12-18T01:04:21.541Z,99.00
2022-12-18T01:06:49.024Z,99.00
2022-12-18T01:09:16.470Z,98.60
2022-12-18T01:11:43.697Z,98.40
2022-12-18T01:14:11.959Z,98.10
2022-12-18T01:16:39.280Z,98.20
2022-12-18T01:19:06.886Z,98.30
2022-12-18T01:21:34.442Z,98.30
2022-12-18T01:24:05.124Z,98.30
2022-12-18T01:26:32.776Z,98.30
2022-12-18T01:29:00.699Z,98.20
2022-12-18T01:31:31.554Z,98.30
2022-12-18T01:34:01.896Z,98.60
2022-12-18T01:36:36.073Z,98.50
2022-12-18T01:39:06.628Z,98.40
2022-12-18T01:41:53.957Z,98.30
2022-12-18T01:44:58.442Z,98.30
2022-12-18T01:47:46.493Z,98.40
2022-12-18T01:50:22.756Z,98.70
2022-12-18T01:53:13.334Z,98.60
2022-12-18T01:55:48.865Z,98.50
2022-12-18T01:58:16.688Z,98.50
2022-12-18T02:01:11.494Z,98.50
2022-12-18T02:03:39.371Z,98.40
2022-12-18T02:06:09.825Z,98.50
2022-12-18T02:08:48.115Z,98.50
2022-12-18T02:11:21.944Z,98.50
2022-12-18T02:13:52.376Z,98.60
2022-12-18T02:16:49.591Z,98.50
2022-12-18T02:19:42.326Z,98.40
2022-12-18T02:22:26.053Z,98.40
2022-12-18T02:25:12.364Z,97.90
2022-12-18T02:27:41.745Z,98.00
2022-12-18T02:30:10.525Z,98.20
2022-12-18T02:32:46.513Z,98.40
2022-12-18T02:35:20.464Z,98.60
2022-12-18T02:37:53.279Z,98.90
2022-12-18T02:40:23.847Z,99.00
2022-12-18T02:42:51.343Z,99.10
2022-12-18T02:45:20.282Z,98.80
2022-12-18T02:47:50.852Z,98.90
2022-12-18T02:50:27.638Z,99.00
2022-12-18T02:53:20.003Z,99.00
2022-12-18T02:56:15.504Z,99.10
2022-12-18T02:59:03.250Z,98.80
2022-12-18T03:01:46.972Z,98.90
2022-12-18T03:04:23.858Z,99.10
2022-12-18T03:06:54.798Z,99.00
2022-12-18T03:09:39.084Z,98.90
2022-12-18T03:12:26.538Z,98.80
2022-12-18T03:15:13.245Z,98.80
2022-12-18T03:17:50.384Z,98.70
2022-12-18T03:20:22.930Z,98.80
2022-12-18T03:22:54.815Z,99.00
2022-12-18T03:25:23.718Z,99.20
2022-12-18T03:27:59.359Z,99.40
2022-12-18T03:30:34.561Z,99.60
2022-12-18T03:33:20.780Z,99.70
2022-12-18T03:35:51.119Z,99.80
2022-12-18T03:38:19.825Z,99.80
2022-12-18T03:41:21.045Z,99.80
2022-12-18T03:44:18.154Z,99.80
2022-12-18T03:47:05.063Z,99.90
2022-12-18T03:49:51.630Z,99.90
2022-12-18T03:52:50.121Z,99.70
2022-12-18T03:55:20.125Z,99.70
2022-12-18T03:57:52.471Z,99.70
2022-12-18T04:00:22.844Z,99.50
2022-12-18T04:03:07.262Z,99.50
2022-12-18T04:05:44.279Z,99.50
2022-12-18T04:08:12.290Z,99.30
2022-12-18T04:10:46.250Z,99.10
2022-12-18T04:13:13.908Z,99.30
2022-12-18T04:15:44.164Z,99.30
2022-12-18T04:18:16.567Z,99.00
2022-12-18T04:20:45.323Z,99.20
2022-12-18T04:23:12.679Z,99.50
2022-12-18T04:25:40.558Z,99.10
2022-12-18T04:28:12.488Z,99.10
2022-12-18T04:30:43.211Z,99.30
2022-12-18T04:33:14.044Z,99.40
2022-12-18T04:35:42.587Z,99.30
2022-12-18T04:38:11.080Z,99.50
2022-12-18T04:40:41.383Z,99.80
2022-12-18T04:43:18.257Z,99.90
2022-12-18T04:45:49.512Z,99.90
2022-12-18T04:48:17.087Z,99.90
2022-12-18T04:50:44.378Z,99.90
2022-12-18T04:53:11.781Z,99.90
2022-12-18T04:55:39.381Z,99.90
2022-12-18T04:58:07.006Z,99.90
2022-12-18T05:00:36.625Z,99.90
2022-12-18T05:03:04.647Z,99.90
2022-12-18T05:05:32.370Z,99.90
2022-12-18T05:08:00.630Z,99.90
2022-12-18T05:10:29.630Z,99.90
2022-12-18T05:13:01.251Z,99.90
2022-12-18T05:15:35.125Z,99.90
2022-12-18T05:18:04.021Z,99.90
2022-12-18T05:20:31.983Z,99.90
2022-12-18T05:22:59.446Z,99.90
2022-12-18T05:25:26.942Z,99.90
2022-12-18T05:27:54.430Z,99.90
2022-12-18T05:30:24.045Z,99.90
2022-12-18T05:32:52.670Z,99.90
2022-12-18T05:35:21.387Z,99.90
2022-12-18T05:37:48.731Z,99.90
2022-12-18T05:40:16.099Z,99.90
2022-12-18T05:42:43.495Z,99.90
2022-12-18T05:45:10.917Z,99.90
2022-12-18T05:47:38.417Z,99.90
2022-12-18T05:50:08.101Z,99.90
2022-12-18T05:52:35.400Z,99.90
2022-12-18T05:55:02.709Z,99.90
2022-12-18T05:57:30.096Z,99.90
2022-12-18T05:59:57.875Z,99.90
2022-12-18T06:02:25.618Z,99.90
2022-12-18T06:04:53.889Z,99.90
2022-12-18T06:07:21.383Z,99.90
2022-12-18T06:09:48.739Z,99.90
2022-12-18T06:12:16.195Z,99.90
2022-12-18T06:14:43.540Z,99.90
2022-12-18T06:17:10.895Z,99.90
2022-12-18T06:19:38.245Z,99.90
2022-12-18T06:22:05.529Z,99.90
2022-12-18T06:24:32.891Z,99.90
2022-12-18T06:27:00.163Z,99.90
2022-12-18T06:29:27.447Z,99.90
2022-12-18T06:31:54.716Z,99.90
2022-12-18T06:34:22.818Z,99.90
2022-12-18T06:36:50.266Z,99.90
2022-12-18T06:39:17.762Z,99.90
2022-12-18T06:41:45.842Z,99.90
2022-12-18T06:44:13.264Z,99.90
2022-12-18T06:46:41.150Z,99.90
2022-12-18T06:49:10.357Z,99.90
2022-12-18T06:51:38.206Z,99.90
2022-12-18T06:54:05.707Z,99.90
2022-12-18T06:56:33.075Z,99.90
2022-12-18T06:59:00.404Z,99.90
2022-12-18T07:01:28.150Z,99.90
2022-12-18T07:03:57.457Z,99.90
2022-12-18T07:06:26.990Z,99.90
2022-12-18T07:08:56.278Z,99.90
2022-12-18T07:11:25.013Z,99.90
2022-12-18T07:13:54.719Z,99.90
2022-12-18T07:16:25.680Z,99.90
2022-12-18T07:18:55.700Z,99.90
2022-12-18T07:21:23.940Z,99.90
2022-12-18T07:23:52.828Z,99.90
2022-12-18T07:26:22.890Z,99.90
2022-12-18T07:28:50.627Z,99.90
2022-12-18T07:31:23.065Z,99.90
2022-12-18T07:33:52.976Z,99.90
2022-12-18T07:36:20.620Z,99.90
2022-12-18T07:38:50.258Z,99.90
2022-12-18T07:41:17.967Z,99.90
2022-12-18T07:43:45.463Z,99.90
2022-12-18T07:46:14.983Z,99.90
2022-12-18T07:48:44.261Z,99.90
2022-12-18T07:51:15.657Z,99.80
2022-12-18T07:53:44.392Z,99.80
2022-12-18T07:56:30.359Z,99.60
2022-12-18T07:59:00.041Z,99.90
2022-12-18T08:01:28.223Z,99.80
2022-12-18T08:03:56.198Z,99.40
2022-12-18T08:06:24.444Z,99.30
2022-12-18T08:08:54.397Z,99.30
2022-12-18T08:11:23.042Z,99.40
2022-12-18T08:13:52.325Z,99.40
2022-12-18T08:16:21.366Z,99.30
2022-12-18T08:18:49.793Z,99.30
2022-12-18T08:21:21.346Z,98.90
2022-12-18T08:23:49.398Z,98.50
2022-12-18T08:26:19.311Z,98.50
2022-12-18T08:28:46.812Z,98.30
2022-12-18T08:31:15.156Z,97.90
2022-12-18T08:33:44.369Z,97.40
2022-12-18T08:36:12.214Z,96.70
2022-12-18T08:38:39.521Z,97.00
2022-12-18T08:41:11.276Z,97.20
2022-12-18T08:44:01.517Z,96.70
2022-12-18T08:46:36.703Z,96.50
2022-12-18T08:49:05.467Z,96.20
2022-12-18T08:51:33.319Z,96.40
2022-12-18T08:54:01.071Z,96.80
2022-12-18T08:56:28.742Z,96.50
2022-12-18T08:59:03.224Z,97.10
2022-12-18T09:01:31.397Z,97.40
2022-12-18T09:03:59.879Z,97.60
2022-12-18T09:06:27.696Z,97.70
2022-12-18T09:08:55.137Z,97.20
2022-12-18T09:11:26.189Z,96.80
2022-12-18T09:13:55.077Z,96.40
2022-12-18T09:16:30.393Z,95.90
2022-12-18T09:19:03.191Z,95.30
2022-12-18T09:21:35.803Z,94.80
2022-12-18T09:24:05.066Z,95.40
2022-12-18T09:26:36.070Z,95.60
2022-12-18T09:29:04.702Z,96.00
2022-12-18T09:31:32.807Z,95.80
2022-12-18T09:34:00.495Z,95.60
2022-12-18T09:36:28.208Z,95.70
2022-12-18T09:39:08.177Z,95.70
2022-12-18T09:41:48.793Z,95.50
2022-12-18T09:44:19.215Z,95.20
2022-12-18T09:47:10.807Z,94.60
2022-12-18T09:49:47.007Z,94.20
2022-12-18T09:52:29.373Z,93.90
2022-12-18T09:55:00.832Z,92.60
2022-12-18T09:57:30.329Z,93.10
2022-12-18T10:00:12.303Z,94.70
2022-12-18T10:02:39.781Z,95.90
2022-12-18T10:05:22.043Z,95.20
2022-12-18T10:08:17.705Z,94.50
2022-12-18T10:10:54.508Z,93.00
2022-12-18T10:13:46.964Z,93.40
2022-12-18T10:17:08.101Z,93.00
2022-12-18T10:19:52.591Z,92.80
2022-12-18T10:22:38.404Z,92.10
2022-12-18T10:25:21.902Z,91.60
2022-12-18T10:27:53.541Z,91.40
2022-12-18T10:30:25.126Z,91.20
2022-12-18T10:32:54.082Z,90.40
2022-12-18T10:35:28.237Z,90.00
2022-12-18T10:38:15.719Z,90.70
2022-12-18T10:40:55.884Z,90.50
2022-12-18T10:43:31.362Z,91.00
2022-12-18T10:46:19.257Z,91.40
2022-12-18T10:48:49.667Z,92.10
2022-12-18T10:51:36.855Z,91.80
2022-12-18T10:54:07.996Z,91.90
2022-12-18T10:56:37.827Z,91.40
2022-12-18T10:59:11.692Z,92.00
2022-12-18T11:01:56.028Z,91.90
2022-12-18T11:04:32.535Z,92.20
2022-12-18T11:07:08.630Z,91.60
2022-12-18T11:09:38.137Z,92.20
2022-12-18T11:12:18.825Z,92.60
2022-12-18T11:14:49.866Z,92.70
2022-12-18T11:17:43.907Z,91.50
2022-12-18T11:20:35.367Z,91.40
2022-12-18T11:23:26.087Z,92.00
2022-12-18T11:26:02.869Z,90.50
2022-12-18T11:28:36.386Z,90.60
2022-12-18T11:31:19.071Z,90.00
2022-12-18T11:34:20.113Z,89.50
2022-12-18T11:36:47.636Z,88.60
2022-12-18T11:39:39.842Z,89.40
2022-12-18T11:42:24.709Z,90.40
2022-12-18T11:44:59.351Z,91.10
2022-12-18T11:47:40.345Z,91.00
2022-12-18T11:50:17.199Z,90.10
2022-12-18T11:52:44.591Z,90.00
2022-12-18T11:55:35.073Z,89.40
2022-12-18T11:58:12.107Z,87.30
2022-12-18T12:01:05.234Z,87.90
2022-12-18T12:03:42.173Z,87.80
2022-12-18T12:06:26.558Z,86.60
2022-12-18T12:09:23.502Z,85.80
2022-12-18T12:12:25.990Z,85.90
2022-12-18T12:15:44.506Z,86.00
2022-12-18T12:18:36.643Z,86.10
2022-12-18T12:21:16.025Z,85.90
2022-12-18T12:23:53.646Z,86.00
2022-12-18T12:26:32.324Z,85.00
2022-12-18T12:30:02.272Z,85.40
2022-12-18T12:32:38.721Z,85.80
2022-12-18T12:35:18.046Z,86.10
2022-12-18T12:38:10.270Z,86.10
2022-12-18T12:40:57.012Z,84.80
2022-12-18T12:43:34.272Z,80.60
2022-12-18T12:46:12.094Z,77.50
2022-12-18T12:48:48.150Z,76.70
2022-12-18T12:51:23.062Z,77.60
2022-12-18T12:53:51.380Z,75.70
2022-12-18T12:56:22.837Z,75.10
2022-12-18T12:58:50.618Z,73.40
2022-12-18T13:01:28.738Z,72.90
2022-12-18T13:04:17.566Z,70.80
2022-12-18T13:06:58.275Z,71.00
2022-12-18T13:09:25.685Z,72.10
2022-12-18T13:12:11.400Z,70.50
2022-12-18T13:14:41.357Z,71.70
2022-12-18T13:17:31.268Z,71.80
2022-12-18T13:20:15.643Z,72.90
2022-12-18T13:22:51.419Z,70.80
2022-12-18T13:25:31.278Z,72.30
2022-12-18T13:28:03.552Z,70.90
2022-12-18T13:30:37.770Z,68.20
2022-12-18T13:33:20.982Z,68.90
2022-12-18T13:35:48.481Z,66.60
2022-12-18T13:38:24.722Z,64.30
2022-12-18T13:41:04.584Z,63.50
2022-12-18T13:43:37.325Z,60.40
2022-12-18T13:46:23.085Z,55.60
2022-12-18T13:49:14.243Z,59.70
2022-12-18T13:51:56.428Z,55.70
2022-12-18T13:54:37.994Z,56.20
2022-12-18T13:57:07.925Z,57.20
2022-12-18T13:59:41.827Z,56.80
2022-12-18T14:02:18.272Z,54.40
2022-12-18T14:04:50.830Z,55.50
2022-12-18T14:07:31.155Z,56.90
2022-12-18T14:10:40.806Z,58.00
2022-12-18T14:13:00.893Z,56.10
2022-12-18T14:15:36.727Z,51.10
2022-12-18T14:18:19.345Z,55.70
2022-12-18T14:20:52.294Z,58.90
2022-12-18T14:23:46.747Z,58.30
2022-12-18T14:26:30.488Z,57.70
2022-12-18T14:29:02.805Z,57.00
2022-12-18T14:31:32.788Z,55.80
2022-12-18T14:34:00.559Z,53.00
2022-12-18T14:36:31.290Z,52.40
2022-12-18T14:39:03.071Z,48.90
2022-12-18T14:41:39.140Z,54.90
2022-12-18T14:44:12.200Z,60.30
2022-12-18T14:46:40.756Z,63.40
2022-12-18T14:49:35.838Z,70.70
2022-12-18T14:52:07.759Z,77.80
2022-12-18T14:54:38.478Z,75.50
2022-12-18T14:57:20.137Z,76.60
2022-12-18T14:59:47.693Z,79.50
2022-12-18T15:02:27.817Z,80.00
2022-12-18T15:05:14.052Z,81.70
2022-12-18T15:07:45.203Z,83.40
2022-12-18T15:10:17.761Z,81.10
2022-12-18T15:12:50.960Z,80.30
2022-12-18T15:15:40.824Z,83.50
2022-12-18T15:18:08.512Z,83.70
2022-12-18T15:20:44.674Z,80.60
2022-12-18T15:23:49.599Z,82.60
2022-12-18T15:26:22.136Z,84.00
2022-12-18T15:28:53.146Z,84.10
2022-12-18T15:31:32.966Z,84.70
2022-12-18T15:34:09.080Z,86.30
2022-12-18T15:36:37.643Z,83.60
2022-12-18T15:39:06.785Z,85.50
2022-12-18T15:41:36.518Z,85.80
2022-12-18T15:44:21.667Z,86.10
2022-12-18T15:46:48.990Z,86.70
2022-12-18T15:49:16.343Z,85.90
2022-12-18T15:51:43.977Z,85.80
2022-12-18T15:54:17.220Z,85.10
2022-12-18T15:57:03.696Z,84.20
2022-12-18T15:59:31.397Z,85.20
2022-12-18T16:02:01.395Z,86.50
2022-12-18T16:04:29.797Z,86.70
2022-12-18T16:07:14.399Z,86.80
2022-12-18T16:09:43.229Z,85.20
2022-12-18T16:12:22.353Z,87.00
2022-12-18T16:14:51.857Z,88.40
2022-12-18T16:17:20.145Z,88.90
2022-12-18T16:19:47.566Z,90.20
2022-12-18T16:22:24.101Z,90.20
2022-12-18T16:24:53.538Z,89.70
2022-12-18T16:27:22.053Z,88.70
2022-12-18T16:29:49.596Z,88.70
2022-12-18T16:32:23.330Z,88.50
2022-12-18T16:34:51.000Z,87.00
2022-12-18T16:37:18.422Z,84.10
2022-12-18T16:39:46.009Z,85.50
2022-12-18T16:42:20.700Z,88.00
2022-12-18T16:44:49.954Z,90.80
2022-12-18T16:47:18.183Z,91.30
2022-12-18T16:49:46.562Z,92.20
2022-12-18T16:52:14.649Z,92.70
2022-12-18T16:54:42.280Z,91.20
2022-12-18T16:57:14.938Z,88.10
2022-12-18T16:59:46.578Z,91.20
2022-12-18T17:02:17.085Z,93.00
2022-12-18T17:04:47.005Z,93.80
2022-12-18T17:07:14.669Z,93.60
2022-12-18T17:09:42.977Z,93.70
2022-12-18T17:12:10.706Z,93.10
2022-12-18T17:14:38.660Z,89.00
2022-12-18T17:17:23.014Z,89.50
2022-12-18T17:19:52.038Z,90.00
2022-12-18T17:22:21.375Z,89.90
2022-12-18T17:24:49.065Z,89.70
2022-12-18T17:27:17.316Z,86.90
2022-12-18T17:29:48.280Z,88.10
2022-12-18T17:32:18.021Z,90.40
2022-12-18T17:34:49.540Z,91.60
2022-12-18T17:37:18.212Z,91.90
2022-12-18T17:39:45.990Z,91.00
2022-12-18T17:42:15.261Z,89.90
2022-12-18T17:44:53.238Z,89.90
2022-12-18T17:47:22.053Z,91.70
2022-12-18T17:49:49.418Z,93.00
2022-12-18T17:52:17.370Z,89.70
2022-12-18T17:54:45.332Z,91.10
2022-12-18T17:57:12.852Z,91.50
2022-12-18T17:59:40.236Z,90.10
2022-12-18T18:02:07.741Z,90.80
2022-12-18T18:04:36.149Z,91.90
2022-12-18T18:07:04.368Z,91.90
2022-12-18T18:09:32.852Z,91.60
2022-12-18T18:12:18.917Z,91.50
2022-12-18T18:14:46.363Z,90.60
2022-12-18T18:17:14.269Z,89.70
2022-12-18T18:19:42.329Z,91.00
2022-12-18T18:22:11.690Z,91.20
2022-12-18T18:28:34.266Z,92.10
2022-12-18T18:31:07.688Z,91.50
2022-12-18T18:33:35.762Z,92.50
2022-12-18T18:36:03.678Z,92.60
2022-12-18T18:38:40.025Z,91.40
2022-12-18T18:41:10.739Z,91.40
2022-12-18T18:43:38.626Z,92.60
2022-12-18T18:46:06.826Z,93.10
2022-12-18T18:48:37.495Z,93.00
2022-12-18T18:51:19.075Z,92.70
2022-12-18T18:53:50.114Z,92.00
2022-12-18T18:59:07.675Z,90.40
2022-12-18T19:01:35.601Z,91.80
2022-12-18T19:04:05.691Z,92.10
2022-12-18T19:06:33.412Z,92.10
2022-12-18T19:09:04.505Z,92.30
2022-12-18T19:11:52.476Z,91.40
2022-12-18T19:14:20.569Z,92.20
2022-12-18T19:16:48.510Z,92.10
2022-12-18T19:19:21.155Z,91.60
2022-12-18T19:21:49.005Z,89.40
2022-12-18T19:24:16.327Z,89.60
2022-12-18T19:26:43.926Z,91.10
2022-12-18T19:29:12.370Z,91.20
2022-12-18T19:31:40.909Z,92.00
2022-12-18T19:34:09.757Z,92.00
2022-12-18T19:36:39.412Z,91.80
2022-12-18T19:39:16.821Z,90.70
2022-12-18T19:41:44.973Z,88.30
2022-12-18T19:44:20.691Z,89.70
2022-12-18T19:46:51.748Z,90.00
2022-12-18T19:49:19.260Z,90.20
2022-12-18T19:51:46.703Z,90.10
2022-12-18T19:54:17.234Z,88.90
2022-12-18T19:56:45.476Z,90.60
2022-12-18T19:59:13.664Z,91.60
2022-12-18T20:01:41.582Z,90.00
2022-12-18T20:04:09.275Z,90.50
2022-12-18T20:06:50.869Z,90.30
2022-12-18T20:09:19.118Z,90.80
2022-12-18T20:11:46.902Z,91.90
2022-12-18T20:14:18.756Z,93.40
2022-12-18T20:16:53.748Z,94.60
2022-12-18T20:19:23.146Z,94.30
2022-12-18T20:21:50.569Z,94.10
2022-12-18T20:24:17.899Z,92.30
2022-12-18T20:26:45.259Z,92.80
2022-12-18T20:29:12.590Z,93.50
2022-12-18T20:31:41.215Z,93.90
2022-12-18T20:34:09.682Z,94.00
2022-12-18T20:36:37.909Z,93.20
2022-12-18T20:39:07.584Z,91.40
2022-12-18T20:41:37.980Z,92.20
2022-12-18T20:44:21.991Z,92.70
2022-12-18T20:46:56.673Z,92.60
2022-12-18T20:49:26.021Z,92.50
2022-12-18T20:51:54.680Z,90.60
2022-12-18T20:54:24.400Z,90.40
2022-12-18T20:56:52.040Z,91.50
2022-12-18T20:59:19.996Z,92.10
2022-12-18T21:01:48.437Z,92.20
2022-12-18T21:04:18.681Z,91.40
2022-12-18T21:06:53.327Z,90.00
2022-12-18T21:09:23.500Z,89.80
2022-12-18T21:12:10.888Z,92.10
2022-12-18T21:14:41.483Z,93.20
2022-12-18T21:17:09.328Z,93.40
2022-12-18T21:19:37.227Z,92.60
2022-12-18T21:22:05.156Z,92.60
2022-12-18T21:24:33.623Z,93.20
2022-12-18T21:27:02.171Z,93.00
2022-12-18T21:29:29.628Z,93.00
2022-12-18T21:31:56.955Z,92.60
2022-12-18T21:34:27.080Z,89.70
2022-12-18T21:36:56.430Z,90.80
2022-12-18T21:39:25.756Z,91.80
2022-12-18T21:42:11.943Z,91.10
2022-12-18T21:44:42.016Z,90.80
2022-12-18T21:47:21.442Z,92.70
2022-12-18T21:49:52.889Z,93.40
2022-12-18T21:52:32.182Z,94.20
2022-12-18T21:55:08.357Z,94.10
2022-12-18T21:57:36.819Z,93.70
2022-12-18T22:00:06.034Z,92.70
2022-12-18T22:02:39.500Z,92.70
2022-12-18T22:05:07.576Z,91.10
2022-12-18T22:07:35.318Z,91.80
2022-12-18T22:10:04.127Z,91.50
2022-12-18T22:12:42.916Z,92.70
2022-12-18T22:15:20.314Z,93.40
2022-12-18T22:17:51.360Z,94.10
2022-12-18T22:20:26.762Z,92.90
2022-12-18T22:22:54.167Z,91.00
2022-12-18T22:25:21.533Z,91.40
2022-12-18T22:28:08.760Z,92.30
2022-12-18T22:30:38.871Z,92.30
2022-12-18T22:33:07.376Z,92.50
2022-12-18T22:35:35.028Z,92.10
2022-12-18T22:38:03.993Z,90.40
2022-12-18T22:40:31.406Z,90.20
2022-12-18T22:42:59.160Z,90.90
2022-12-18T22:45:31.045Z,91.80
2022-12-18T22:48:01.508Z,91.30
2022-12-18T22:50:28.947Z,92.00
2022-12-18T22:52:56.352Z,90.70
2022-12-18T22:55:23.653Z,92.70
2022-12-18T22:57:54.090Z,93.20
2022-12-18T23:00:24.390Z,93.30
2022-12-18T23:03:00.312Z,93.20
2022-12-18T23:05:29.825Z,92.70
2022-12-18T23:07:57.449Z,91.40
2022-12-18T23:10:25.068Z,90.90
2022-12-18T23:12:57.757Z,91.10
2022-12-18T23:15:30.136Z,90.20
2022-12-18T23:17:59.543Z,91.40
2022-12-18T23:20:30.022Z,92.20
2022-12-18T23:22:57.358Z,92.20
2022-12-18T23:25:24.758Z,90.80
2022-12-18T23:27:52.064Z,90.10
2022-12-18T23:30:19.907Z,90.90
2022-12-18T23:32:47.372Z,91.90
2022-12-18T23:35:15.822Z,92.00
2022-12-18T23:38:00.575Z,91.40
2022-12-18T23:40:29.695Z,91.40
2022-12-18T23:42:57.153Z,91.20
2022-12-18T23:45:29.029Z,91.90
2022-12-18T23:47:58.019Z,91.80
2022-12-18T23:50:29.657Z,91.00
2022-12-18T23:53:00.681Z,91.50
2022-12-18T23:55:33.917Z,91.50
2022-12-18T23:58:01.373Z,91.80
